sensor_id;sensor_type;location;lat;lon;timestamp;P1;durP1;ratioP1;P2;durP2;ratioP2
29002;SDS011;16102;57.138;-2.118;2022-09-27T00:00:59;9.68;;;1.67;;
29002;SDS011;16102;57.138;-2.118;2022-09-27T00:03:27;8.88;;;1.33;;
29002;SDS011;16102;57.138;-2.118;2022-09-27T00:08:29;6.25;;;1.65;;
29002;SDS011;16102;57.138;-2.118;2022-09-27T00:11:00;11.40;;;2.00;;
29002;SDS011;16102;57.138;-2.118;2022-09-27T00:13:28;6.95;;;1.13;;
29002;SDS011;16102;57.138;-2.118;2022-09-27T00:15:56;8.07;;;1.75;;
29002;SDS011;16102;57.138;-2.118;2022-09-27T00:18:30;5.50;;;1.25;;
29002;SDS011;16102;57.138;-2.118;2022-09-27T00:21:04;4.35;;;1.02;;
29002;SDS011;16102;57.138;-2.118;2022-09-27T00:23:36;11.18;;;1.67;;
29002;SDS011;16102;57.138;-2.118;2022-09-27T00:26:04;8.60;;;1.50;;
29002;SDS011;16102;57.138;-2.118;2022-09-27T00:28:33;6.25;;;1.10;;
29002;SDS011;16102;57.138;-2.118;2022-09-27T00:31:00;5.72;;;0.77;;
29002;SDS011;16102;57.138;-2.118;2022-09-27T00:33:28;7.13;;;1.63;;
29002;SDS011;16102;57.138;-2.118;2022-09-27T00:36:01;11.90;;;1.48;;
29002;SDS011;16102;57.138;-2.118;2022-09-27T00:38:29;6.03;;;1.20;;
29002;SDS011;16102;57.138;-2.118;2022-09-27T00:40:56;12.02;;;1.30;;
29002;SDS011;16102;57.138;-2.118;2022-09-27T00:43:23;6.47;;;1.52;;
29002;SDS011;16102;57.138;-2.118;2022-09-27T00:45:52;7.55;;;1.15;;
29002;SDS011;16102;57.138;-2.118;2022-09-27T00:48:26;7.33;;;0.80;;
29002;SDS011;16102;57.138;-2.118;2022-09-27T00:50:57;7.13;;;1.15;;
29002;SDS011;16102;57.138;-2.118;2022-09-27T00:53:38;4.78;;;1.05;;
29002;SDS011;16102;57.138;-2.118;2022-09-27T00:56:16;11.40;;;1.35;;
29002;SDS011;16102;57.138;-2.118;2022-09-27T00:58:49;6.38;;;1.00;;
29002;SDS011;16102;57.138;-2.118;2022-09-27T01:01:28;7.93;;;1.33;;
29002;SDS011;16102;57.138;-2.118;2022-09-27T01:06:51;8.93;;;1.95;;
29002;SDS011;16102;57.138;-2.118;2022-09-27T01:09:18;9.25;;;1.42;;
29002;SDS011;16102;57.138;-2.118;2022-09-27T01:17:30;6.25;;;1.30;;
29002;SDS011;16102;57.138;-2.118;2022-09-27T01:26:10;3.03;;;0.98;;
29002;SDS011;16102;57.138;-2.118;2022-09-27T01:31:39;14.00;;;2.10;;
29002;SDS011;16102;57.138;-2.118;2022-09-27T01:38:11;3.85;;;0.98;;
29002;SDS011;16102;57.138;-2.118;2022-09-27T01:40:39;4.47;;;1.13;;
29002;SDS011;16102;57.138;-2.118;2022-09-27T01:43:23;6.80;;;1.35;;
29002;SDS011;16102;57.138;-2.118;2022-09-27T01:46:12;10.65;;;1.45;;
29002;SDS011;16102;57.138;-2.118;2022-09-27T01:48:46;11.10;;;1.48;;
29002;SDS011;16102;57.138;-2.118;2022-09-27T01:51:17;11.88;;;2.35;;
29002;SDS011;16102;57.138;-2.118;2022-09-27T01:53:46;6.47;;;1.20;;
29002;SDS011;16102;57.138;-2.118;2022-09-27T01:56:34;9.90;;;1.30;;
29002;SDS011;16102;57.138;-2.118;2022-09-27T01:59:15;7.30;;;1.50;;
29002;SDS011;16102;57.138;-2.118;2022-09-27T02:01:57;3.55;;;0.73;;
29002;SDS011;16102;57.138;-2.118;2022-09-27T02:04:30;5.25;;;0.90;;
29002;SDS011;16102;57.138;-2.118;2022-09-27T02:07:01;4.15;;;1.42;;
29002;SDS011;16102;57.138;-2.118;2022-09-27T02:09:57;9.13;;;1.20;;
29002;SDS011;16102;57.138;-2.118;2022-09-27T02:12:28;7.72;;;1.30;;
29002;SDS011;16102;57.138;-2.118;2022-09-27T02:15:00;6.38;;;1.30;;
29002;SDS011;16102;57.138;-2.118;2022-09-27T02:22:55;6.47;;;1.13;;
29002;SDS011;16102;57.138;-2.118;2022-09-27T02:25:34;7.72;;;1.00;;
29002;SDS011;16102;57.138;-2.118;2022-09-27T02:30:50;8.43;;;1.23;;
29002;SDS011;16102;57.138;-2.118;2022-09-27T02:33:40;8.30;;;1.40;;
29002;SDS011;16102;57.138;-2.118;2022-09-27T02:36:14;4.13;;;0.90;;
29002;SDS011;16102;57.138;-2.118;2022-09-27T02:38:42;3.85;;;1.08;;
29002;SDS011;16102;57.138;-2.118;2022-09-27T02:41:12;8.73;;;1.20;;
29002;SDS011;16102;57.138;-2.118;2022-09-27T02:43:44;4.43;;;0.70;;
29002;SDS011;16102;57.138;-2.118;2022-09-27T03:01:03;3.50;;;0.80;;
29002;SDS011;16102;57.138;-2.118;2022-09-27T03:03:34;2.58;;;0.50;;
29002;SDS011;16102;57.138;-2.118;2022-09-27T03:06:17;5.40;;;0.98;;
29002;SDS011;16102;57.138;-2.118;2022-09-27T03:08:48;8.85;;;1.52;;
29002;SDS011;16102;57.138;-2.118;2022-09-27T03:11:15;13.27;;;1.92;;
29002;SDS011;16102;57.138;-2.118;2022-09-27T03:13:43;5.57;;;1.02;;
29002;SDS011;16102;57.138;-2.118;2022-09-27T03:16:30;4.82;;;0.98;;
29002;SDS011;16102;57.138;-2.118;2022-09-27T03:18:57;7.85;;;1.77;;
29002;SDS011;16102;57.138;-2.118;2022-09-27T03:21:24;8.63;;;1.42;;
29002;SDS011;16102;57.138;-2.118;2022-09-27T03:23:51;5.90;;;1.05;;
29002;SDS011;16102;57.138;-2.118;2022-09-27T03:26:18;5.03;;;0.75;;
29002;SDS011;16102;57.138;-2.118;2022-09-27T03:28:45;4.13;;;1.13;;
29002;SDS011;16102;57.138;-2.118;2022-09-27T03:31:11;13.32;;;1.08;;
29002;SDS011;16102;57.138;-2.118;2022-09-27T03:33:39;6.45;;;1.23;;
29002;SDS011;16102;57.138;-2.118;2022-09-27T03:36:06;9.85;;;1.13;;
29002;SDS011;16102;57.138;-2.118;2022-09-27T03:38:33;5.00;;;0.77;;
29002;SDS011;16102;57.138;-2.118;2022-09-27T03:41:00;18.40;;;2.40;;
29002;SDS011;16102;57.138;-2.118;2022-09-27T03:43:27;4.07;;;1.20;;
29002;SDS011;16102;57.138;-2.118;2022-09-27T03:45:54;6.07;;;1.20;;
29002;SDS011;16102;57.138;-2.118;2022-09-27T03:48:21;4.70;;;0.95;;
29002;SDS011;16102;57.138;-2.118;2022-09-27T03:50:53;7.45;;;1.27;;
29002;SDS011;16102;57.138;-2.118;2022-09-27T03:53:20;10.18;;;1.73;;
29002;SDS011;16102;57.138;-2.118;2022-09-27T03:55:47;5.45;;;1.45;;
29002;SDS011;16102;57.138;-2.118;2022-09-27T03:58:14;5.28;;;1.08;;
29002;SDS011;16102;57.138;-2.118;2022-09-27T04:00:40;3.00;;;0.80;;
29002;SDS011;16102;57.138;-2.118;2022-09-27T04:03:09;2.63;;;0.80;;
29002;SDS011;16102;57.138;-2.118;2022-09-27T04:05:37;5.07;;;0.90;;
29002;SDS011;16102;57.138;-2.118;2022-09-27T04:08:04;1.67;;;0.40;;
29002;SDS011;16102;57.138;-2.118;2022-09-27T04:10:36;3.35;;;0.60;;
29002;SDS011;16102;57.138;-2.118;2022-09-27T04:13:03;9.05;;;1.38;;
29002;SDS011;16102;57.138;-2.118;2022-09-27T04:15:30;3.90;;;1.38;;
29002;SDS011;16102;57.138;-2.118;2022-09-27T04:17:57;8.25;;;1.05;;
29002;SDS011;16102;57.138;-2.118;2022-09-27T04:20:24;7.75;;;1.08;;
29002;SDS011;16102;57.138;-2.118;2022-09-27T04:22:51;2.60;;;0.68;;
29002;SDS011;16102;57.138;-2.118;2022-09-27T04:25:18;4.57;;;0.80;;
29002;SDS011;16102;57.138;-2.118;2022-09-27T04:27:45;3.55;;;0.88;;
29002;SDS011;16102;57.138;-2.118;2022-09-27T04:30:13;2.45;;;0.70;;
29002;SDS011;16102;57.138;-2.118;2022-09-27T04:32:41;4.70;;;0.75;;
29002;SDS011;16102;57.138;-2.118;2022-09-27T04:35:10;4.45;;;1.20;;
29002;SDS011;16102;57.138;-2.118;2022-09-27T04:37:56;2.53;;;0.47;;
29002;SDS011;16102;57.138;-2.118;2022-09-27T04:40:24;6.10;;;0.98;;
29002;SDS011;16102;57.138;-2.118;2022-09-27T04:42:51;1.92;;;0.47;;
29002;SDS011;16102;57.138;-2.118;2022-09-27T04:45:18;1.13;;;0.30;;
29002;SDS011;16102;57.138;-2.118;2022-09-27T04:47:46;6.03;;;0.60;;
29002;SDS011;16102;57.138;-2.118;2022-09-27T04:50:15;2.80;;;0.80;;
29002;SDS011;16102;57.138;-2.118;2022-09-27T04:52:42;2.15;;;0.60;;
29002;SDS011;16102;57.138;-2.118;2022-09-27T04:55:09;3.10;;;0.60;;
29002;SDS011;16102;57.138;-2.118;2022-09-27T04:57:36;1.42;;;0.50;;
29002;SDS011;16102;57.138;-2.118;2022-09-27T05:00:03;4.05;;;0.45;;
29002;SDS011;16102;57.138;-2.118;2022-09-27T05:02:31;3.63;;;0.50;;
29002;SDS011;16102;57.138;-2.118;2022-09-27T05:04:58;1.80;;;0.22;;
29002;SDS011;16102;57.138;-2.118;2022-09-27T05:07:26;3.15;;;0.70;;
29002;SDS011;16102;57.138;-2.118;2022-09-27T05:09:53;4.07;;;0.47;;
29002;SDS011;16102;57.138;-2.118;2022-09-27T05:12:21;1.90;;;0.30;;
29002;SDS011;16102;57.138;-2.118;2022-09-27T05:14:52;0.50;;;0.38;;
29002;SDS011;16102;57.138;-2.118;2022-09-27T05:17:19;1.17;;;0.40;;
29002;SDS011;16102;57.138;-2.118;2022-09-27T05:19:48;1.17;;;0.45;;
29002;SDS011;16102;57.138;-2.118;2022-09-27T05:22:15;2.15;;;0.28;;
29002;SDS011;16102;57.138;-2.118;2022-09-27T05:24:42;2.25;;;0.45;;
29002;SDS011;16102;57.138;-2.118;2022-09-27T05:27:11;0.52;;;0.20;;
29002;SDS011;16102;57.138;-2.118;2022-09-27T05:29:41;3.22;;;0.60;;
29002;SDS011;16102;57.138;-2.118;2022-09-27T05:32:08;3.97;;;0.40;;
29002;SDS011;16102;57.138;-2.118;2022-09-27T05:34:35;0.15;;;0.10;;
29002;SDS011;16102;57.138;-2.118;2022-09-27T05:37:01;2.97;;;0.55;;
29002;SDS011;16102;57.138;-2.118;2022-09-27T05:39:28;4.55;;;0.40;;
29002;SDS011;16102;57.138;-2.118;2022-09-27T05:41:55;1.15;;;0.40;;
29002;SDS011;16102;57.138;-2.118;2022-09-27T05:44:22;6.63;;;0.77;;
29002;SDS011;16102;57.138;-2.118;2022-09-27T05:46:51;3.33;;;0.85;;
29002;SDS011;16102;57.138;-2.118;2022-09-27T05:49:18;3.72;;;0.57;;
29002;SDS011;16102;57.138;-2.118;2022-09-27T05:51:45;1.50;;;0.30;;
29002;SDS011;16102;57.138;-2.118;2022-09-27T05:54:12;2.53;;;0.55;;
29002;SDS011;16102;57.138;-2.118;2022-09-27T05:56:40;2.90;;;0.52;;
29002;SDS011;16102;57.138;-2.118;2022-09-27T05:59:06;4.20;;;0.50;;
29002;SDS011;16102;57.138;-2.118;2022-09-27T06:01:33;0.88;;;0.32;;
29002;SDS011;16102;57.138;-2.118;2022-09-27T06:04:01;2.58;;;0.50;;
29002;SDS011;16102;57.138;-2.118;2022-09-27T06:06:30;1.65;;;0.50;;
29002;SDS011;16102;57.138;-2.118;2022-09-27T06:08:59;2.47;;;0.30;;
29002;SDS011;16102;57.138;-2.118;2022-09-27T06:11:26;2.97;;;0.77;;
29002;SDS011;16102;57.138;-2.118;2022-09-27T06:13:53;4.35;;;0.57;;
29002;SDS011;16102;57.138;-2.118;2022-09-27T06:16:20;4.20;;;0.52;;
29002;SDS011;16102;57.138;-2.118;2022-09-27T06:18:47;1.05;;;0.40;;
29002;SDS011;16102;57.138;-2.118;2022-09-27T06:21:14;2.03;;;0.57;;
29002;SDS011;16102;57.138;-2.118;2022-09-27T06:23:41;1.85;;;0.90;;
29002;SDS011;16102;57.138;-2.118;2022-09-27T06:26:08;2.78;;;0.98;;
29002;SDS011;16102;57.138;-2.118;2022-09-27T06:28:36;2.97;;;0.60;;
29002;SDS011;16102;57.138;-2.118;2022-09-27T06:31:06;2.67;;;0.40;;
29002;SDS011;16102;57.138;-2.118;2022-09-27T06:33:34;6.43;;;1.00;;
29002;SDS011;16102;57.138;-2.118;2022-09-27T06:36:01;2.03;;;0.45;;
29002;SDS011;16102;57.138;-2.118;2022-09-27T06:38:30;2.70;;;1.15;;
29002;SDS011;16102;57.138;-2.118;2022-09-27T06:40:59;4.00;;;1.02;;
29002;SDS011;16102;57.138;-2.118;2022-09-27T06:43:27;5.38;;;0.65;;
29002;SDS011;16102;57.138;-2.118;2022-09-27T06:45:58;4.90;;;0.98;;
29002;SDS011;16102;57.138;-2.118;2022-09-27T06:48:30;2.88;;;0.68;;
29002;SDS011;16102;57.138;-2.118;2022-09-27T06:50:58;4.05;;;1.10;;
29002;SDS011;16102;57.138;-2.118;2022-09-27T06:53:25;2.63;;;0.50;;
29002;SDS011;16102;57.138;-2.118;2022-09-27T06:55:52;2.70;;;1.20;;
29002;SDS011;16102;57.138;-2.118;2022-09-27T06:58:24;1.80;;;0.40;;
29002;SDS011;16102;57.138;-2.118;2022-09-27T07:01:11;2.83;;;0.68;;
29002;SDS011;16102;57.138;-2.118;2022-09-27T07:03:38;4.03;;;0.90;;
29002;SDS011;16102;57.138;-2.118;2022-09-27T07:06:16;3.72;;;0.90;;
29002;SDS011;16102;57.138;-2.118;2022-09-27T07:08:49;1.75;;;0.45;;
29002;SDS011;16102;57.138;-2.118;2022-09-27T07:11:17;0.82;;;0.30;;
29002;SDS011;16102;57.138;-2.118;2022-09-27T07:13:45;5.07;;;0.65;;
29002;SDS011;16102;57.138;-2.118;2022-09-27T07:16:12;3.55;;;0.60;;
29002;SDS011;16102;57.138;-2.118;2022-09-27T07:18:40;2.80;;;0.70;;
29002;SDS011;16102;57.138;-2.118;2022-09-27T07:21:07;4.38;;;0.65;;
29002;SDS011;16102;57.138;-2.118;2022-09-27T07:23:36;0.52;;;0.40;;
29002;SDS011;16102;57.138;-2.118;2022-09-27T07:26:03;3.15;;;0.75;;
29002;SDS011;16102;57.138;-2.118;2022-09-27T07:28:32;4.75;;;0.80;;
29002;SDS011;16102;57.138;-2.118;2022-09-27T07:30:59;3.70;;;0.52;;
29002;SDS011;16102;57.138;-2.118;2022-09-27T07:33:28;0.68;;;0.30;;
29002;SDS011;16102;57.138;-2.118;2022-09-27T07:35:56;2.50;;;0.73;;
29002;SDS011;16102;57.138;-2.118;2022-09-27T07:38:23;3.13;;;0.63;;
29002;SDS011;16102;57.138;-2.118;2022-09-27T07:40:50;4.57;;;0.57;;
29002;SDS011;16102;57.138;-2.118;2022-09-27T07:43:17;4.22;;;0.63;;
29002;SDS011;16102;57.138;-2.118;2022-09-27T07:45:44;2.53;;;0.30;;
29002;SDS011;16102;57.138;-2.118;2022-09-27T07:48:13;2.50;;;0.43;;
29002;SDS011;16102;57.138;-2.118;2022-09-27T07:50:41;2.75;;;0.50;;
29002;SDS011;16102;57.138;-2.118;2022-09-27T07:53:08;1.33;;;0.28;;
29002;SDS011;16102;57.138;-2.118;2022-09-27T07:55:38;0.90;;;0.40;;
29002;SDS011;16102;57.138;-2.118;2022-09-27T07:58:07;1.30;;;0.50;;
29002;SDS011;16102;57.138;-2.118;2022-09-27T08:00:36;1.88;;;0.45;;
29002;SDS011;16102;57.138;-2.118;2022-09-27T08:03:09;0.35;;;0.20;;
29002;SDS011;16102;57.138;-2.118;2022-09-27T08:05:39;2.58;;;0.50;;
29002;SDS011;16102;57.138;-2.118;2022-09-27T08:08:07;3.33;;;0.50;;
29002;SDS011;16102;57.138;-2.118;2022-09-27T08:10:34;2.42;;;0.90;;
29002;SDS011;16102;57.138;-2.118;2022-09-27T08:13:02;3.42;;;0.30;;
29002;SDS011;16102;57.138;-2.118;2022-09-27T08:15:30;1.92;;;0.35;;
29002;SDS011;16102;57.138;-2.118;2022-09-27T08:17:58;0.88;;;0.30;;
29002;SDS011;16102;57.138;-2.118;2022-09-27T08:20:25;0.82;;;0.30;;
29002;SDS011;16102;57.138;-2.118;2022-09-27T08:22:52;1.55;;;0.68;;
29002;SDS011;16102;57.138;-2.118;2022-09-27T08:25:19;1.20;;;0.20;;
29002;SDS011;16102;57.138;-2.118;2022-09-27T08:27:56;1.27;;;0.20;;
29002;SDS011;16102;57.138;-2.118;2022-09-27T08:30:24;0.35;;;0.15;;
29002;SDS011;16102;57.138;-2.118;2022-09-27T08:32:58;0.38;;;0.20;;
29002;SDS011;16102;57.138;-2.118;2022-09-27T08:35:26;1.25;;;0.20;;
29002;SDS011;16102;57.138;-2.118;2022-09-27T08:37:55;2.80;;;0.38;;
29002;SDS011;16102;57.138;-2.118;2022-09-27T08:40:26;0.98;;;0.15;;
29002;SDS011;16102;57.138;-2.118;2022-09-27T08:43:26;0.90;;;0.22;;
29002;SDS011;16102;57.138;-2.118;2022-09-27T08:46:14;0.43;;;0.10;;
29002;SDS011;16102;57.138;-2.118;2022-09-27T08:51:59;0.50;;;0.30;;
29002;SDS011;16102;57.138;-2.118;2022-09-27T08:54:30;0.73;;;0.30;;
29002;SDS011;16102;57.138;-2.118;2022-09-27T08:57:01;2.35;;;0.20;;
29002;SDS011;16102;57.138;-2.118;2022-09-27T09:00:17;1.08;;;0.22;;
29002;SDS011;16102;57.138;-2.118;2022-09-27T09:02:28;1.13;;;0.28;;
29002;SDS011;16102;57.138;-2.118;2022-09-27T09:04:56;1.40;;;0.30;;
29002;SDS011;16102;57.138;-2.118;2022-09-27T09:10:48;0.55;;;0.25;;
29002;SDS011;16102;57.138;-2.118;2022-09-27T09:16:53;1.73;;;0.30;;
29002;SDS011;16102;57.138;-2.118;2022-09-27T09:31:04;2.00;;;0.43;;
29002;SDS011;16102;57.138;-2.118;2022-09-27T09:34:11;1.63;;;0.30;;
29002;SDS011;16102;57.138;-2.118;2022-09-27T09:36:57;1.92;;;0.32;;
29002;SDS011;16102;57.138;-2.118;2022-09-27T09:45:34;1.88;;;0.40;;
29002;SDS011;16102;57.138;-2.118;2022-09-27T09:48:06;5.32;;;0.55;;
29002;SDS011;16102;57.138;-2.118;2022-09-27T09:50:56;2.13;;;0.38;;
29002;SDS011;16102;57.138;-2.118;2022-09-27T09:55:58;2.05;;;0.35;;
29002;SDS011;16102;57.138;-2.118;2022-09-27T09:58:49;1.92;;;0.40;;
29002;SDS011;16102;57.138;-2.118;2022-09-27T10:01:26;2.15;;;0.50;;
29002;SDS011;16102;57.138;-2.118;2022-09-27T10:04:01;1.63;;;0.40;;
29002;SDS011;16102;57.138;-2.118;2022-09-27T10:06:29;1.65;;;0.68;;
29002;SDS011;16102;57.138;-2.118;2022-09-27T10:08:57;1.92;;;0.60;;
29002;SDS011;16102;57.138;-2.118;2022-09-27T10:11:26;2.08;;;0.40;;
29002;SDS011;16102;57.138;-2.118;2022-09-27T10:14:00;3.60;;;0.38;;
29002;SDS011;16102;57.138;-2.118;2022-09-27T10:16:27;2.67;;;0.60;;
29002;SDS011;16102;57.138;-2.118;2022-09-27T10:18:56;1.30;;;0.30;;
29002;SDS011;16102;57.138;-2.118;2022-09-27T10:21:28;2.15;;;0.50;;
29002;SDS011;16102;57.138;-2.118;2022-09-27T10:24:05;2.35;;;0.30;;
29002;SDS011;16102;57.138;-2.118;2022-09-27T10:26:39;3.03;;;0.90;;
29002;SDS011;16102;57.138;-2.118;2022-09-27T10:31:45;0.95;;;0.40;;
29002;SDS011;16102;57.138;-2.118;2022-09-27T10:34:23;0.70;;;0.20;;
29002;SDS011;16102;57.138;-2.118;2022-09-27T10:37:05;0.85;;;0.45;;
29002;SDS011;16102;57.138;-2.118;2022-09-27T10:39:32;1.13;;;0.30;;
29002;SDS011;16102;57.138;-2.118;2022-09-27T10:42:00;0.77;;;0.20;;
29002;SDS011;16102;57.138;-2.118;2022-09-27T10:44:29;1.00;;;0.30;;
29002;SDS011;16102;57.138;-2.118;2022-09-27T10:46:59;0.93;;;0.20;;
29002;SDS011;16102;57.138;-2.118;2022-09-27T10:49:35;1.90;;;0.30;;
29002;SDS011;16102;57.138;-2.118;2022-09-27T10:52:17;0.90;;;0.20;;
29002;SDS011;16102;57.138;-2.118;2022-09-27T10:54:52;0.85;;;0.20;;
29002;SDS011;16102;57.138;-2.118;2022-09-27T10:57:24;1.38;;;0.20;;
29002;SDS011;16102;57.138;-2.118;2022-09-27T10:59:57;0.52;;;0.15;;
29002;SDS011;16102;57.138;-2.118;2022-09-27T11:02:33;0.98;;;0.32;;
29002;SDS011;16102;57.138;-2.118;2022-09-27T11:08:00;4.38;;;0.30;;
29002;SDS011;16102;57.138;-2.118;2022-09-27T11:13:37;0.75;;;0.22;;
29002;SDS011;16102;57.138;-2.118;2022-09-27T11:19:06;1.83;;;0.10;;
29002;SDS011;16102;57.138;-2.118;2022-09-27T11:21:50;0.75;;;0.20;;
29002;SDS011;16102;57.138;-2.118;2022-09-27T11:38:17;1.45;;;0.30;;
29002;SDS011;16102;57.138;-2.118;2022-09-27T11:46:33;0.80;;;0.35;;
29002;SDS011;16102;57.138;-2.118;2022-09-27T11:55:08;0.65;;;0.20;;
29002;SDS011;16102;57.138;-2.118;2022-09-27T12:03:59;2.05;;;0.40;;
29002;SDS011;16102;57.138;-2.118;2022-09-27T12:06:58;0.75;;;0.30;;
29002;SDS011;16102;57.138;-2.118;2022-09-27T12:09:46;1.70;;;0.22;;
29002;SDS011;16102;57.138;-2.118;2022-09-27T12:12:38;0.70;;;0.17;;
29002;SDS011;16102;57.138;-2.118;2022-09-27T12:15:14;0.60;;;0.17;;
29002;SDS011;16102;57.138;-2.118;2022-09-27T12:17:45;0.95;;;0.30;;
29002;SDS011;16102;57.138;-2.118;2022-09-27T12:20:26;1.70;;;0.15;;
29002;SDS011;16102;57.138;-2.118;2022-09-27T12:25:28;0.15;;;0.10;;
29002;SDS011;16102;57.138;-2.118;2022-09-27T12:30:33;0.60;;;0.10;;
29002;SDS011;16102;57.138;-2.118;2022-09-27T12:35:56;2.28;;;0.30;;
29002;SDS011;16102;57.138;-2.118;2022-09-27T12:38:39;0.70;;;0.30;;
29002;SDS011;16102;57.138;-2.118;2022-09-27T12:41:21;1.90;;;0.38;;
29002;SDS011;16102;57.138;-2.118;2022-09-27T12:43:49;1.65;;;0.25;;
29002;SDS011;16102;57.138;-2.118;2022-09-27T12:49:45;3.63;;;0.88;;
29002;SDS011;16102;57.138;-2.118;2022-09-27T12:52:16;1.95;;;0.43;;
29002;SDS011;16102;57.138;-2.118;2022-09-27T13:01:18;1.25;;;0.40;;
29002;SDS011;16102;57.138;-2.118;2022-09-27T13:12:13;0.47;;;0.40;;
29002;SDS011;16102;57.138;-2.118;2022-09-27T13:14:59;1.20;;;0.43;;
29002;SDS011;16102;57.138;-2.118;2022-09-27T13:17:31;1.73;;;0.40;;
29002;SDS011;16102;57.138;-2.118;2022-09-27T13:25:50;1.33;;;0.68;;
29002;SDS011;16102;57.138;-2.118;2022-09-27T13:30:55;0.60;;;0.20;;
29002;SDS011;16102;57.138;-2.118;2022-09-27T13:33:33;1.25;;;0.50;;
29002;SDS011;16102;57.138;-2.118;2022-09-27T13:36:18;0.75;;;0.30;;
29002;SDS011;16102;57.138;-2.118;2022-09-27T13:47:12;0.88;;;0.20;;
29002;SDS011;16102;57.138;-2.118;2022-09-27T13:50:01;2.03;;;0.30;;
29002;SDS011;16102;57.138;-2.118;2022-09-27T14:01:49;4.57;;;0.55;;
29002;SDS011;16102;57.138;-2.118;2022-09-27T14:04:02;1.75;;;0.47;;
29002;SDS011;16102;57.138;-2.118;2022-09-27T14:06:40;1.02;;;0.25;;
29002;SDS011;16102;57.138;-2.118;2022-09-27T14:09:16;4.75;;;0.63;;
29002;SDS011;16102;57.138;-2.118;2022-09-27T14:11:50;1.38;;;0.52;;
29002;SDS011;16102;57.138;-2.118;2022-09-27T14:14:21;3.55;;;0.57;;
29002;SDS011;16102;57.138;-2.118;2022-09-27T14:16:51;2.25;;;0.45;;
29002;SDS011;16102;57.138;-2.118;2022-09-27T14:19:23;2.15;;;0.20;;
29002;SDS011;16102;57.138;-2.118;2022-09-27T14:21:51;1.13;;;0.28;;
29002;SDS011;16102;57.138;-2.118;2022-09-27T14:24:19;1.42;;;0.40;;
29002;SDS011;16102;57.138;-2.118;2022-09-27T14:26:50;1.20;;;0.45;;
29002;SDS011;16102;57.138;-2.118;2022-09-27T14:29:36;2.72;;;0.68;;
29002;SDS011;16102;57.138;-2.118;2022-09-27T14:32:09;2.30;;;0.55;;
29002;SDS011;16102;57.138;-2.118;2022-09-27T14:34:38;1.52;;;0.38;;
29002;SDS011;16102;57.138;-2.118;2022-09-27T14:37:12;2.88;;;0.50;;
29002;SDS011;16102;57.138;-2.118;2022-09-27T14:40:00;3.40;;;0.40;;
29002;SDS011;16102;57.138;-2.118;2022-09-27T14:42:33;1.45;;;0.38;;
29002;SDS011;16102;57.138;-2.118;2022-09-27T14:47:56;1.88;;;0.55;;
29002;SDS011;16102;57.138;-2.118;2022-09-27T14:50:26;0.90;;;0.22;;
29002;SDS011;16102;57.138;-2.118;2022-09-27T14:52:55;1.50;;;0.50;;
29002;SDS011;16102;57.138;-2.118;2022-09-27T14:55:27;1.85;;;0.85;;
29002;SDS011;16102;57.138;-2.118;2022-09-27T14:58:00;2.07;;;0.60;;
29002;SDS011;16102;57.138;-2.118;2022-09-27T15:00:30;1.00;;;0.70;;
29002;SDS011;16102;57.138;-2.118;2022-09-27T15:03:01;5.60;;;1.10;;
29002;SDS011;16102;57.138;-2.118;2022-09-27T15:05:31;1.80;;;0.70;;
29002;SDS011;16102;57.138;-2.118;2022-09-27T15:08:01;3.38;;;0.60;;
29002;SDS011;16102;57.138;-2.118;2022-09-27T15:10:32;2.75;;;0.38;;
29002;SDS011;16102;57.138;-2.118;2022-09-27T15:13:01;0.95;;;0.30;;
29002;SDS011;16102;57.138;-2.118;2022-09-27T15:15:33;1.42;;;0.45;;
29002;SDS011;16102;57.138;-2.118;2022-09-27T15:18:22;1.95;;;0.80;;
29002;SDS011;16102;57.138;-2.118;2022-09-27T15:20:59;1.25;;;0.40;;
29002;SDS011;16102;57.138;-2.118;2022-09-27T15:23:36;2.20;;;0.40;;
29002;SDS011;16102;57.138;-2.118;2022-09-27T15:28:44;0.13;;;0.10;;
29002;SDS011;16102;57.138;-2.118;2022-09-27T15:31:14;1.45;;;0.30;;
29002;SDS011;16102;57.138;-2.118;2022-09-27T15:33:41;0.57;;;0.20;;
29002;SDS011;16102;57.138;-2.118;2022-09-27T15:39:18;0.85;;;0.30;;
29002;SDS011;16102;57.138;-2.118;2022-09-27T15:42:13;1.70;;;0.20;;
29002;SDS011;16102;57.138;-2.118;2022-09-27T15:44:45;0.77;;;0.43;;
29002;SDS011;16102;57.138;-2.118;2022-09-27T15:52:58;0.73;;;0.30;;
29002;SDS011;16102;57.138;-2.118;2022-09-27T15:55:41;2.50;;;0.40;;
29002;SDS011;16102;57.138;-2.118;2022-09-27T15:58:14;1.45;;;0.40;;
29002;SDS011;16102;57.138;-2.118;2022-09-27T16:00:55;0.47;;;0.20;;
29002;SDS011;16102;57.138;-2.118;2022-09-27T16:03:24;1.80;;;0.28;;
29002;SDS011;16102;57.138;-2.118;2022-09-27T16:05:52;3.25;;;0.30;;
29002;SDS011;16102;57.138;-2.118;2022-09-27T16:08:22;3.67;;;0.63;;
29002;SDS011;16102;57.138;-2.118;2022-09-27T16:10:55;4.63;;;0.70;;
29002;SDS011;16102;57.138;-2.118;2022-09-27T16:13:23;0.68;;;0.30;;
29002;SDS011;16102;57.138;-2.118;2022-09-27T16:15:58;1.45;;;0.35;;
29002;SDS011;16102;57.138;-2.118;2022-09-27T16:18:25;1.98;;;0.30;;
29002;SDS011;16102;57.138;-2.118;2022-09-27T16:20:56;0.98;;;0.60;;
29002;SDS011;16102;57.138;-2.118;2022-09-27T16:23:26;4.15;;;0.60;;
29002;SDS011;16102;57.138;-2.118;2022-09-27T16:25:54;2.90;;;0.50;;
29002;SDS011;16102;57.138;-2.118;2022-09-27T16:28:23;3.50;;;0.47;;
29002;SDS011;16102;57.138;-2.118;2022-09-27T16:30:50;2.03;;;0.47;;
29002;SDS011;16102;57.138;-2.118;2022-09-27T16:33:21;4.32;;;0.65;;
29002;SDS011;16102;57.138;-2.118;2022-09-27T16:35:57;2.58;;;1.00;;
29002;SDS011;16102;57.138;-2.118;2022-09-27T16:38:32;0.82;;;0.30;;
29002;SDS011;16102;57.138;-2.118;2022-09-27T16:40:59;1.95;;;0.60;;
29002;SDS011;16102;57.138;-2.118;2022-09-27T16:43:31;1.58;;;0.32;;
29002;SDS011;16102;57.138;-2.118;2022-09-27T16:46:10;3.20;;;0.50;;
29002;SDS011;16102;57.138;-2.118;2022-09-27T16:48:44;5.00;;;1.00;;
29002;SDS011;16102;57.138;-2.118;2022-09-27T16:51:16;3.33;;;1.63;;
29002;SDS011;16102;57.138;-2.118;2022-09-27T16:54:02;3.95;;;0.90;;
29002;SDS011;16102;57.138;-2.118;2022-09-27T16:56:31;2.55;;;0.55;;
29002;SDS011;16102;57.138;-2.118;2022-09-27T16:58:59;1.42;;;0.50;;
29002;SDS011;16102;57.138;-2.118;2022-09-27T17:01:29;0.75;;;0.47;;
29002;SDS011;16102;57.138;-2.118;2022-09-27T17:03:57;1.80;;;0.43;;
29002;SDS011;16102;57.138;-2.118;2022-09-27T17:06:25;2.55;;;0.47;;
29002;SDS011;16102;57.138;-2.118;2022-09-27T17:11:44;2.08;;;0.90;;
29002;SDS011;16102;57.138;-2.118;2022-09-27T17:14:31;3.05;;;0.75;;
29002;SDS011;16102;57.138;-2.118;2022-09-27T17:17:01;1.13;;;0.50;;
29002;SDS011;16102;57.138;-2.118;2022-09-27T17:19:34;0.90;;;0.65;;
29002;SDS011;16102;57.138;-2.118;2022-09-27T17:22:12;1.75;;;0.63;;
29002;SDS011;16102;57.138;-2.118;2022-09-27T17:25:16;3.65;;;0.85;;
29002;SDS011;16102;57.138;-2.118;2022-09-27T17:27:43;3.90;;;1.17;;
29002;SDS011;16102;57.138;-2.118;2022-09-27T17:30:10;1.08;;;0.68;;
29002;SDS011;16102;57.138;-2.118;2022-09-27T17:32:52;1.77;;;0.80;;
29002;SDS011;16102;57.138;-2.118;2022-09-27T17:35:19;1.65;;;0.95;;
29002;SDS011;16102;57.138;-2.118;2022-09-27T17:38:08;2.10;;;0.70;;
29002;SDS011;16102;57.138;-2.118;2022-09-27T17:40:40;5.45;;;1.05;;
29002;SDS011;16102;57.138;-2.118;2022-09-27T17:53:00;1.67;;;0.50;;
29002;SDS011;16102;57.138;-2.118;2022-09-27T17:55:27;3.05;;;0.60;;
29002;SDS011;16102;57.138;-2.118;2022-09-27T18:02:14;3.78;;;0.80;;
29002;SDS011;16102;57.138;-2.118;2022-09-27T18:04:50;1.52;;;0.60;;
29002;SDS011;16102;57.138;-2.118;2022-09-27T18:14:32;2.72;;;0.68;;
29002;SDS011;16102;57.138;-2.118;2022-09-27T18:20:59;1.58;;;0.35;;
29002;SDS011;16102;57.138;-2.118;2022-09-27T18:23:36;0.98;;;0.47;;
29002;SDS011;16102;57.138;-2.118;2022-09-27T18:39:54;1.17;;;0.25;;
29002;SDS011;16102;57.138;-2.118;2022-09-27T18:43:08;3.47;;;0.70;;
29002;SDS011;16102;57.138;-2.118;2022-09-27T18:46:04;1.77;;;0.30;;
29002;SDS011;16102;57.138;-2.118;2022-09-27T18:52:08;2.25;;;0.70;;
29002;SDS011;16102;57.138;-2.118;2022-09-27T19:05:28;1.50;;;0.60;;